createdAt,value
2022-10-22T00:00:36.452Z,96911.63
2022-10-22T00:10:58.567Z,96895.31
2022-10-22T00:21:00.662Z,96884.84
2022-10-22T00:31:03.169Z,96903.75
2022-10-22T00:41:05.515Z,96935.34
2022-10-22T00:51:08.555Z,96936.84
2022-10-22T01:01:17.532Z,96917.47
2022-10-22T01:11:31.831Z,96918.44
2022-10-22T01:21:47.841Z,96908.03
2022-10-22T01:32:00.695Z,96897.28
2022-10-22T01:42:02.792Z,96921.41
2022-10-22T01:52:46.952Z,96926.22
2022-10-22T02:02:55.180Z,96886.22
2022-10-22T02:13:00.052Z,96903.09
2022-10-22T02:23:03.669Z,96895.69
2022-10-22T02:33:17.919Z,96888.59
2022-10-22T02:43:20.042Z,96900.28
2022-10-22T02:53:22.101Z,96908.28
2022-10-22T03:03:24.229Z,96908.94
2022-10-22T03:13:26.305Z,96916.81
2022-10-22T03:23:28.766Z,96905.69
2022-10-22T03:33:30.853Z,96896.47
2022-10-22T03:43:35.457Z,96892.94
2022-10-22T03:53:37.595Z,96887.50
2022-10-22T04:03:40.603Z,96920.53
2022-10-22T04:13:43.582Z,96939.88
2022-10-22T04:23:47.661Z,96943.41
2022-10-22T04:33:54.717Z,96924.91
2022-10-22T04:43:57.907Z,96927.38
2022-10-22T04:54:00.224Z,96926.47
2022-10-22T05:04:04.335Z,96953.03
2022-10-22T05:14:07.884Z,96959.66
2022-10-22T05:24:09.971Z,96961.41
2022-10-22T05:34:12.335Z,96956.78
2022-10-22T05:44:14.448Z,96964.88
2022-10-22T05:54:19.242Z,96968.97
2022-10-22T06:04:21.719Z,96967.06
2022-10-22T06:14:25.123Z,96975.47
2022-10-22T06:24:27.179Z,96984.41
2022-10-22T06:34:29.248Z,96990.59
2022-10-22T06:44:31.417Z,96985.66
2022-10-22T06:54:33.601Z,96991.34
2022-10-22T07:04:36.437Z,96988.81
2022-10-22T07:14:38.677Z,97001.25
2022-10-22T07:24:40.820Z,97014.56
2022-10-22T07:34:43.895Z,97036.78
2022-10-22T07:44:46.191Z,97014.34
2022-10-22T07:54:48.293Z,97035.63
2022-10-22T08:04:50.455Z,97061.06
2022-10-22T08:14:52.656Z,97059.59
2022-10-22T08:24:54.785Z,97047.03
2022-10-22T08:34:57.282Z,97054.13
2022-10-22T08:45:23.850Z,97054.69
2022-10-22T08:55:26.533Z,97073.63
2022-10-22T09:05:48.504Z,97068.63
2022-10-22T09:15:58.038Z,97066.31
2022-10-22T09:26:00.965Z,97067.53
2022-10-22T09:36:07.008Z,97068.19
2022-10-22T09:46:17.915Z,97052.75
2022-10-22T09:56:37.944Z,97054.56
2022-10-22T10:06:43.008Z,97076.56
2022-10-22T10:16:53.308Z,97076.75
2022-10-22T10:27:05.312Z,97078.28
2022-10-22T10:37:30.511Z,97062.47
2022-10-22T10:47:50.982Z,97062.50
2022-10-22T10:58:09.760Z,97094.25
2022-10-22T11:08:19.215Z,97101.69
2022-10-22T11:18:32.306Z,97097.59
2022-10-22T11:28:40.467Z,97096.44
2022-10-22T11:38:42.792Z,97104.41
2022-10-22T11:49:00.623Z,97092.31
2022-10-22T11:59:03.005Z,97089.16
2022-10-22T12:09:07.359Z,97078.31
2022-10-22T12:19:18.715Z,97067.09
2022-10-22T12:29:26.804Z,97078.53
2022-10-22T12:39:28.973Z,97084.53
2022-10-22T12:49:41.075Z,97106.94
2022-10-22T12:59:49.995Z,97116.97
2022-10-22T13:09:59.900Z,97127.44
2022-10-22T13:20:15.181Z,97151.19
2022-10-22T13:30:30.356Z,97143.72
2022-10-22T13:40:32.461Z,97155.09
2022-10-22T13:50:34.673Z,97157.44
2022-10-22T14:00:38.946Z,97157.97
2022-10-22T14:10:41.099Z,97159.72
2022-10-22T14:20:43.308Z,97168.53
2022-10-22T14:30:46.490Z,97171.41
2022-10-22T14:40:49.199Z,97168.34
2022-10-22T14:50:51.545Z,97172.00
2022-10-22T15:00:53.785Z,97178.69
2022-10-22T15:11:05.427Z,97180.41
2022-10-22T15:21:19.078Z,97181.91
2022-10-22T15:31:42.651Z,97202.13
2022-10-22T15:41:44.764Z,97223.59
2022-10-22T15:51:46.942Z,97240.53
2022-10-22T16:01:50.199Z,97248.84
2022-10-22T16:22:15.866Z,97296.16
2022-10-22T16:32:18.053Z,97304.16
2022-10-22T16:42:20.205Z,97314.97
2022-10-22T16:52:22.293Z,97333.97
2022-10-22T17:02:24.388Z,97345.88
2022-10-22T17:12:26.998Z,97352.03
2022-10-22T17:22:29.379Z,97361.69
2022-10-22T17:32:31.961Z,97357.91
2022-10-22T17:42:34.330Z,97373.28
2022-10-22T17:52:36.511Z,97378.75
2022-10-22T18:02:38.899Z,97384.69
2022-10-22T18:12:41.364Z,97387.69
2022-10-22T18:22:45.443Z,97385.94
2022-10-22T18:32:47.556Z,97401.66
2022-10-22T18:42:49.657Z,97397.78
2022-10-22T18:52:51.878Z,97409.94
2022-10-22T19:02:55.014Z,97403.16
2022-10-22T19:12:57.291Z,97418.31
2022-10-22T19:23:00.589Z,97424.25
2022-10-22T19:33:02.736Z,97427.91
2022-10-22T19:43:04.968Z,97437.59
2022-10-22T19:53:07.035Z,97454.53
2022-10-22T20:03:09.118Z,97461.19
2022-10-22T20:13:11.208Z,97468.13
2022-10-22T20:23:13.323Z,97464.75
2022-10-22T20:40:13.089Z,97477.72
2022-10-22T20:50:15.241Z,97479.53
2022-10-22T21:00:17.520Z,97495.34
2022-10-22T21:10:19.706Z,97507.44
2022-10-22T21:20:24.585Z,97504.38
2022-10-22T21:30:27.088Z,97502.72
2022-10-22T21:40:29.232Z,97511.06
2022-10-22T21:50:31.509Z,97511.00
2022-10-22T22:00:34.916Z,97501.50
2022-10-22T22:10:37.039Z,97502.41
2022-10-22T22:20:39.179Z,97516.59
2022-10-22T22:30:41.278Z,97512.53
2022-10-22T22:40:43.595Z,97517.41
2022-10-22T22:50:45.759Z,97523.16
2022-10-22T23:00:47.866Z,97511.44
2022-10-22T23:10:49.967Z,97508.34
2022-10-22T23:20:53.267Z,97504.72
2022-10-22T23:30:55.602Z,97497.38
2022-10-22T23:40:57.882Z,97503.56
2022-10-22T23:51:11.798Z,97504.19
